Aviation Digital Data Service (ADDS)

Output produced by METARs form (0224 UTC 22 April 2019)
found at http://www.aviationweather.gov/metar/data/
 
Forecast for: UHSS (JUZNO-SAHALINSK , RU)
Text: TAF UHSS 220200Z 2203/2309 27003MPS 9999 BKN020CB
Forecast period: 0300 UTC 22 April 2019 to 0900 UTC 23 April 2019
Forecast type: FROM: standard forecast or significant change
Winds: from the W (270 degrees) at 7 MPH (6 knots; 3.1 m/s)
Visibility: 6 or more miles 10+ km)
Ceiling: 2000 feet AGL
Clouds: broken clouds at 2000 feet AGL
Weather: no significant weather forecast for this period
Text: TEMPO 2203/2209 29005G10MPS
Forecast period: 0300 to 0900 UTC 22 April 2019
Forecast type: TEMPORARY: The following changes expected for less than half the time period
Winds: from the WNW (290 degrees) at 12 MPH (10 knots; 5.1 m/s)
gusting to 22 MPH (19 knots; 9.8 m/s)
Visibility: missing
Ceiling: unknown
Clouds: missing
Weather: no significant weather forecast for this period